createdAt,value
2024-04-07T00:02:47.585Z,12.9785
2024-04-07T00:12:59.145Z,12.9425
2024-04-07T00:23:10.590Z,12.8944
2024-04-07T00:33:21.816Z,12.8529
2024-04-07T00:43:33.209Z,12.8094
2024-04-07T00:53:44.110Z,12.7708
2024-04-07T01:03:54.837Z,12.7325
2024-04-07T01:14:05.992Z,12.6898
2024-04-07T01:24:16.841Z,12.6475
2024-04-07T01:34:27.706Z,12.6054
2024-04-07T01:44:39.259Z,12.5646
2024-04-07T01:54:50.770Z,12.5212
2024-04-07T02:05:01.429Z,12.4802
2024-04-07T02:15:12.814Z,12.4460
2024-04-07T02:25:23.924Z,12.3994
2024-04-07T02:35:34.843Z,12.3567
2024-04-07T02:45:45.924Z,12.3181
2024-04-07T02:55:57.399Z,12.2758
2024-04-07T03:06:08.443Z,12.2362
2024-04-07T03:16:19.901Z,12.2029
2024-04-07T03:26:30.914Z,12.1625
2024-04-07T03:36:42.444Z,12.1310
2024-04-07T03:46:53.122Z,12.0950
2024-04-07T03:57:04.211Z,12.0583
2024-04-07T04:07:15.244Z,12.0281
2024-04-07T04:17:26.587Z,12.0025
2024-04-07T04:27:37.449Z,11.9688
2024-04-07T04:37:48.137Z,11.9417
2024-04-07T04:47:59.241Z,11.9175
2024-04-07T04:58:10.268Z,11.8860
2024-04-07T05:08:21.043Z,11.8577
2024-04-07T05:18:32.317Z,11.8363
2024-04-07T05:28:43.184Z,11.8081
2024-04-07T05:38:54.996Z,11.7796
2024-04-07T05:49:06.476Z,11.7656
2024-04-07T05:59:17.516Z,11.7408
2024-04-07T06:09:28.916Z,11.7156
2024-04-07T06:19:39.821Z,11.6944
2024-04-07T06:29:51.545Z,11.6829
2024-04-07T06:40:02.583Z,11.6633
2024-04-07T06:50:13.953Z,11.6560
2024-04-07T07:00:24.940Z,11.6475
2024-04-07T07:10:36.459Z,11.6385
2024-04-07T07:20:48.196Z,11.6375
2024-04-07T07:30:59.928Z,11.6375
2024-04-07T07:41:11.596Z,11.6452
2024-04-07T07:51:23.143Z,11.6608
2024-04-07T08:01:36.401Z,11.6729
2024-04-07T08:11:49.303Z,11.6877
2024-04-07T08:22:00.406Z,11.7044
2024-04-07T08:32:11.402Z,11.7362
2024-04-07T08:42:23.015Z,11.7677
2024-04-07T08:52:34.211Z,11.7931
2024-04-07T09:02:45.351Z,11.8329
2024-04-07T09:12:56.972Z,11.8798
2024-04-07T09:23:07.725Z,11.9248
2024-04-07T09:33:19.296Z,11.9838
2024-04-07T09:43:30.950Z,12.0398
2024-04-07T09:53:42.591Z,12.1052
2024-04-07T10:03:53.607Z,12.1687
2024-04-07T10:14:04.519Z,12.2417
2024-04-07T10:24:15.650Z,12.3152
2024-04-07T10:34:26.490Z,12.3952
2024-04-07T10:44:37.963Z,12.4650
2024-04-07T10:54:49.493Z,12.5465
2024-04-07T11:05:00.390Z,12.6254
2024-04-07T11:15:11.982Z,12.7015
2024-04-07T11:25:22.816Z,12.7908
2024-04-07T11:35:33.680Z,12.8771
2024-04-07T11:45:44.192Z,12.9592
2024-04-07T11:55:55.738Z,13.0517
2024-04-07T12:06:07.289Z,13.1452
2024-04-07T12:16:17.834Z,13.2356
2024-04-07T12:26:29.388Z,13.3219
2024-04-07T12:36:41.282Z,13.4113
2024-04-07T12:46:54.045Z,13.4942
2024-04-07T12:57:04.938Z,13.5817
2024-04-07T13:07:16.704Z,13.6646
2024-04-07T13:17:28.384Z,13.7556
2024-04-07T13:27:40.027Z,13.8450
2024-04-07T13:37:51.640Z,13.9456
2024-04-07T13:48:03.174Z,14.0356
2024-04-07T13:58:14.914Z,14.1277
2024-04-07T14:08:26.556Z,14.2150
2024-04-07T14:18:37.312Z,14.3042
2024-04-07T14:28:48.591Z,14.3890
2024-04-07T14:38:59.841Z,14.4754
2024-04-07T14:49:11.402Z,14.5492
2024-04-07T14:59:22.350Z,14.6217
2024-04-07T15:09:33.165Z,14.6819
2024-04-07T15:19:44.843Z,14.7423
2024-04-07T15:29:55.550Z,14.7867
2024-04-07T15:40:08.915Z,14.8285
2024-04-07T15:50:20.060Z,14.8629
2024-04-07T16:00:31.598Z,14.8877
2024-04-07T16:10:42.288Z,14.9106
2024-04-07T16:20:55.485Z,14.9325
2024-04-07T16:31:06.963Z,14.9450
2024-04-07T16:41:18.051Z,14.9535
2024-04-07T16:51:28.912Z,14.9552
2024-04-07T17:01:40.483Z,14.9535
2024-04-07T17:11:52.213Z,14.9448
2024-04-07T17:22:03.196Z,14.9340
2024-04-07T17:32:14.032Z,14.9154
2024-04-07T17:42:24.923Z,14.8998
2024-04-07T17:52:36.467Z,14.8748
2024-04-07T18:02:48.248Z,14.8479
2024-04-07T18:12:59.626Z,14.8244
2024-04-07T18:23:10.486Z,14.7892
2024-04-07T18:33:21.629Z,14.7554
2024-04-07T18:43:32.811Z,14.7175
2024-04-07T18:53:44.026Z,14.6758
2024-04-07T19:03:54.948Z,14.6369
2024-04-07T19:14:06.597Z,14.5948
2024-04-07T19:24:17.894Z,14.5435
2024-04-07T19:34:29.060Z,14.4979
2024-04-07T19:44:40.202Z,14.4554
2024-04-07T19:54:51.596Z,14.4075
2024-04-07T20:05:02.692Z,14.3625
2024-04-07T20:15:13.606Z,14.3156
2024-04-07T20:25:25.074Z,14.2677
2024-04-07T20:35:36.209Z,14.2225
2024-04-07T20:45:46.944Z,14.1737
2024-04-07T20:55:57.845Z,14.1342
2024-04-07T21:06:08.798Z,14.0877
2024-04-07T21:16:19.526Z,14.0410
2024-04-07T21:26:30.644Z,13.9983
2024-04-07T21:36:41.681Z,13.9525
2024-04-07T21:46:52.679Z,13.9123
2024-04-07T21:57:03.664Z,13.8725
2024-04-07T22:07:14.469Z,13.8246
2024-04-07T22:17:25.409Z,13.7840
2024-04-07T22:27:36.332Z,13.7454
2024-04-07T22:37:47.463Z,13.6994
2024-04-07T22:47:57.937Z,13.6694
2024-04-07T22:58:08.963Z,13.6302
2024-04-07T23:08:20.172Z,13.5969
2024-04-07T23:18:31.489Z,13.5560
2024-04-07T23:28:42.243Z,13.5275
2024-04-07T23:38:53.005Z,13.4919
2024-04-07T23:49:04.093Z,13.4558
2024-04-07T23:59:15.011Z,13.4267
